sensor_id;sensor_type;location;lat;lon;timestamp;P1;durP1;ratioP1;P2;durP2;ratioP2
57395;SDS011;43222;52.912;6.940;2024-01-11T00:00:29;56.33;;;31.08;;
57395;SDS011;43222;52.912;6.940;2024-01-11T00:02:55;53.88;;;28.92;;
57395;SDS011;43222;52.912;6.940;2024-01-11T00:05:21;54.90;;;30.35;;
57395;SDS011;43222;52.912;6.940;2024-01-11T00:07:47;53.22;;;30.38;;
57395;SDS011;43222;52.912;6.940;2024-01-11T00:10:15;57.28;;;31.33;;
57395;SDS011;43222;52.912;6.940;2024-01-11T00:12:41;56.80;;;31.10;;
57395;SDS011;43222;52.912;6.940;2024-01-11T00:15:07;54.17;;;29.08;;
57395;SDS011;43222;52.912;6.940;2024-01-11T00:17:33;55.75;;;29.88;;
57395;SDS011;43222;52.912;6.940;2024-01-11T00:20:00;55.50;;;29.63;;
57395;SDS011;43222;52.912;6.940;2024-01-11T00:22:26;53.90;;;30.02;;
57395;SDS011;43222;52.912;6.940;2024-01-11T00:24:52;52.97;;;29.60;;
57395;SDS011;43222;52.912;6.940;2024-01-11T00:27:18;53.65;;;31.02;;
57395;SDS011;43222;52.912;6.940;2024-01-11T00:29:44;53.33;;;29.00;;
57395;SDS011;43222;52.912;6.940;2024-01-11T00:32:10;51.10;;;28.65;;
57395;SDS011;43222;52.912;6.940;2024-01-11T00:34:36;51.05;;;27.48;;
57395;SDS011;43222;52.912;6.940;2024-01-11T00:37:03;51.63;;;27.45;;
57395;SDS011;43222;52.912;6.940;2024-01-11T00:39:29;55.13;;;29.02;;
57395;SDS011;43222;52.912;6.940;2024-01-11T00:41:55;59.13;;;29.83;;
57395;SDS011;43222;52.912;6.940;2024-01-11T00:44:21;55.55;;;30.67;;
57395;SDS011;43222;52.912;6.940;2024-01-11T00:46:48;58.08;;;28.98;;
57395;SDS011;43222;52.912;6.940;2024-01-11T00:49:14;56.13;;;30.05;;
57395;SDS011;43222;52.912;6.940;2024-01-11T00:51:40;54.67;;;29.33;;
57395;SDS011;43222;52.912;6.940;2024-01-11T00:54:06;54.17;;;29.75;;
57395;SDS011;43222;52.912;6.940;2024-01-11T00:56:32;54.42;;;28.23;;
57395;SDS011;43222;52.912;6.940;2024-01-11T00:58:58;53.92;;;29.90;;
57395;SDS011;43222;52.912;6.940;2024-01-11T01:01:24;54.05;;;28.38;;
57395;SDS011;43222;52.912;6.940;2024-01-11T01:03:50;58.22;;;30.67;;
57395;SDS011;43222;52.912;6.940;2024-01-11T01:06:16;52.15;;;28.23;;
57395;SDS011;43222;52.912;6.940;2024-01-11T01:08:43;57.38;;;29.60;;
57395;SDS011;43222;52.912;6.940;2024-01-11T01:11:09;56.45;;;29.40;;
57395;SDS011;43222;52.912;6.940;2024-01-11T01:13:35;54.22;;;28.15;;
57395;SDS011;43222;52.912;6.940;2024-01-11T01:16:01;55.10;;;28.55;;
57395;SDS011;43222;52.912;6.940;2024-01-11T01:18:27;60.38;;;31.13;;
57395;SDS011;43222;52.912;6.940;2024-01-11T01:20:53;53.58;;;28.50;;
57395;SDS011;43222;52.912;6.940;2024-01-11T01:23:19;59.03;;;30.50;;
57395;SDS011;43222;52.912;6.940;2024-01-11T01:25:45;62.92;;;30.45;;
57395;SDS011;43222;52.912;6.940;2024-01-11T01:28:11;63.63;;;30.40;;
57395;SDS011;43222;52.912;6.940;2024-01-11T01:30:38;57.42;;;30.95;;
57395;SDS011;43222;52.912;6.940;2024-01-11T01:33:04;61.83;;;30.27;;
57395;SDS011;43222;52.912;6.940;2024-01-11T01:35:30;60.97;;;31.30;;
57395;SDS011;43222;52.912;6.940;2024-01-11T01:37:56;60.05;;;31.23;;
57395;SDS011;43222;52.912;6.940;2024-01-11T01:40:22;58.60;;;29.95;;
57395;SDS011;43222;52.912;6.940;2024-01-11T01:42:48;58.92;;;30.90;;
57395;SDS011;43222;52.912;6.940;2024-01-11T01:45:14;57.38;;;30.55;;
57395;SDS011;43222;52.912;6.940;2024-01-11T01:47:42;57.97;;;29.85;;
57395;SDS011;43222;52.912;6.940;2024-01-11T01:50:09;55.78;;;30.38;;
57395;SDS011;43222;52.912;6.940;2024-01-11T01:52:35;60.00;;;30.90;;
57395;SDS011;43222;52.912;6.940;2024-01-11T01:55:02;55.05;;;28.90;;
57395;SDS011;43222;52.912;6.940;2024-01-11T01:57:29;58.33;;;29.58;;
57395;SDS011;43222;52.912;6.940;2024-01-11T01:59:56;57.72;;;30.40;;
57395;SDS011;43222;52.912;6.940;2024-01-11T02:02:22;57.20;;;30.27;;
57395;SDS011;43222;52.912;6.940;2024-01-11T02:04:48;58.78;;;29.33;;
57395;SDS011;43222;52.912;6.940;2024-01-11T02:07:14;53.33;;;28.75;;
57395;SDS011;43222;52.912;6.940;2024-01-11T02:09:41;56.50;;;30.90;;
57395;SDS011;43222;52.912;6.940;2024-01-11T02:12:08;56.33;;;29.45;;
57395;SDS011;43222;52.912;6.940;2024-01-11T02:14:38;57.05;;;30.35;;
57395;SDS011;43222;52.912;6.940;2024-01-11T02:17:05;53.90;;;28.60;;
57395;SDS011;43222;52.912;6.940;2024-01-11T02:19:31;56.45;;;29.05;;
57395;SDS011;43222;52.912;6.940;2024-01-11T02:22:00;55.92;;;30.40;;
57395;SDS011;43222;52.912;6.940;2024-01-11T02:24:28;53.60;;;28.83;;
57395;SDS011;43222;52.912;6.940;2024-01-11T02:27:01;56.03;;;29.63;;
57395;SDS011;43222;52.912;6.940;2024-01-11T02:29:28;56.17;;;29.67;;
57395;SDS011;43222;52.912;6.940;2024-01-11T02:31:57;57.00;;;29.50;;
57395;SDS011;43222;52.912;6.940;2024-01-11T02:34:24;52.67;;;28.95;;
57395;SDS011;43222;52.912;6.940;2024-01-11T02:36:51;51.42;;;28.45;;
57395;SDS011;43222;52.912;6.940;2024-01-11T02:39:18;54.80;;;29.25;;
57395;SDS011;43222;52.912;6.940;2024-01-11T02:41:45;51.88;;;28.40;;
57395;SDS011;43222;52.912;6.940;2024-01-11T02:44:11;57.95;;;30.52;;
57395;SDS011;43222;52.912;6.940;2024-01-11T02:46:37;52.88;;;27.83;;
57395;SDS011;43222;52.912;6.940;2024-01-11T02:49:03;58.35;;;31.23;;
57395;SDS011;43222;52.912;6.940;2024-01-11T02:51:29;55.90;;;29.92;;
57395;SDS011;43222;52.912;6.940;2024-01-11T02:53:55;52.13;;;28.02;;
57395;SDS011;43222;52.912;6.940;2024-01-11T02:56:21;62.65;;;30.80;;
57395;SDS011;43222;52.912;6.940;2024-01-11T02:58:48;55.50;;;29.55;;
57395;SDS011;43222;52.912;6.940;2024-01-11T03:01:14;59.38;;;31.77;;
57395;SDS011;43222;52.912;6.940;2024-01-11T03:03:41;56.95;;;30.52;;
57395;SDS011;43222;52.912;6.940;2024-01-11T03:06:07;55.65;;;29.42;;
57395;SDS011;43222;52.912;6.940;2024-01-11T03:08:33;53.78;;;29.55;;
57395;SDS011;43222;52.912;6.940;2024-01-11T03:10:59;59.15;;;31.75;;
57395;SDS011;43222;52.912;6.940;2024-01-11T03:13:25;55.20;;;29.10;;
57395;SDS011;43222;52.912;6.940;2024-01-11T03:15:51;57.45;;;30.30;;
57395;SDS011;43222;52.912;6.940;2024-01-11T03:18:17;58.35;;;30.40;;
57395;SDS011;43222;52.912;6.940;2024-01-11T03:20:43;57.80;;;30.35;;
57395;SDS011;43222;52.912;6.940;2024-01-11T03:23:09;57.47;;;30.00;;
57395;SDS011;43222;52.912;6.940;2024-01-11T03:25:35;59.42;;;30.20;;
57395;SDS011;43222;52.912;6.940;2024-01-11T03:28:01;58.08;;;29.58;;
57395;SDS011;43222;52.912;6.940;2024-01-11T03:30:28;55.85;;;30.15;;
57395;SDS011;43222;52.912;6.940;2024-01-11T03:32:54;58.08;;;31.45;;
57395;SDS011;43222;52.912;6.940;2024-01-11T03:35:20;59.05;;;30.52;;
57395;SDS011;43222;52.912;6.940;2024-01-11T03:37:47;55.97;;;29.60;;
57395;SDS011;43222;52.912;6.940;2024-01-11T03:40:13;62.67;;;31.73;;
57395;SDS011;43222;52.912;6.940;2024-01-11T03:42:39;57.45;;;30.73;;
57395;SDS011;43222;52.912;6.940;2024-01-11T03:45:05;60.17;;;29.88;;
57395;SDS011;43222;52.912;6.940;2024-01-11T03:47:31;56.17;;;29.05;;
57395;SDS011;43222;52.912;6.940;2024-01-11T03:49:57;56.58;;;29.88;;
57395;SDS011;43222;52.912;6.940;2024-01-11T03:52:23;55.40;;;29.77;;
57395;SDS011;43222;52.912;6.940;2024-01-11T03:54:50;56.83;;;30.27;;
57395;SDS011;43222;52.912;6.940;2024-01-11T03:57:16;62.35;;;30.38;;
57395;SDS011;43222;52.912;6.940;2024-01-11T03:59:42;64.50;;;31.95;;
57395;SDS011;43222;52.912;6.940;2024-01-11T04:02:09;64.80;;;32.40;;
57395;SDS011;43222;52.912;6.940;2024-01-11T04:04:35;62.67;;;31.15;;
57395;SDS011;43222;52.912;6.940;2024-01-11T04:07:01;61.38;;;31.73;;
57395;SDS011;43222;52.912;6.940;2024-01-11T04:09:27;62.03;;;31.67;;
57395;SDS011;43222;52.912;6.940;2024-01-11T04:11:53;64.25;;;31.75;;
57395;SDS011;43222;52.912;6.940;2024-01-11T04:14:19;64.72;;;32.15;;
57395;SDS011;43222;52.912;6.940;2024-01-11T04:16:45;62.55;;;31.02;;
57395;SDS011;43222;52.912;6.940;2024-01-11T04:19:11;60.22;;;30.52;;
57395;SDS011;43222;52.912;6.940;2024-01-11T04:21:37;61.92;;;32.22;;
57395;SDS011;43222;52.912;6.940;2024-01-11T04:24:04;61.95;;;32.35;;
57395;SDS011;43222;52.912;6.940;2024-01-11T04:26:33;60.17;;;31.88;;
57395;SDS011;43222;52.912;6.940;2024-01-11T04:29:00;62.63;;;32.10;;
57395;SDS011;43222;52.912;6.940;2024-01-11T04:31:26;60.10;;;31.55;;
57395;SDS011;43222;52.912;6.940;2024-01-11T04:33:52;60.15;;;31.90;;
57395;SDS011;43222;52.912;6.940;2024-01-11T04:36:18;60.65;;;30.70;;
57395;SDS011;43222;52.912;6.940;2024-01-11T04:38:44;61.65;;;30.23;;
57395;SDS011;43222;52.912;6.940;2024-01-11T04:41:11;61.22;;;31.80;;
57395;SDS011;43222;52.912;6.940;2024-01-11T04:43:41;61.70;;;31.23;;
57395;SDS011;43222;52.912;6.940;2024-01-11T04:46:16;65.68;;;33.17;;
57395;SDS011;43222;52.912;6.940;2024-01-11T04:48:43;66.75;;;32.30;;
57395;SDS011;43222;52.912;6.940;2024-01-11T04:51:09;58.97;;;30.98;;
57395;SDS011;43222;52.912;6.940;2024-01-11T04:53:36;60.92;;;31.98;;
57395;SDS011;43222;52.912;6.940;2024-01-11T04:56:03;59.03;;;30.63;;
57395;SDS011;43222;52.912;6.940;2024-01-11T04:58:29;59.25;;;31.25;;
57395;SDS011;43222;52.912;6.940;2024-01-11T05:00:55;63.78;;;32.53;;
57395;SDS011;43222;52.912;6.940;2024-01-11T05:03:21;63.88;;;31.13;;
57395;SDS011;43222;52.912;6.940;2024-01-11T05:05:47;64.95;;;31.65;;
57395;SDS011;43222;52.912;6.940;2024-01-11T05:08:13;68.05;;;34.03;;
57395;SDS011;43222;52.912;6.940;2024-01-11T05:10:39;64.55;;;33.53;;
57395;SDS011;43222;52.912;6.940;2024-01-11T05:13:05;72.53;;;33.13;;
57395;SDS011;43222;52.912;6.940;2024-01-11T05:15:31;71.68;;;35.03;;
57395;SDS011;43222;52.912;6.940;2024-01-11T05:17:59;69.00;;;34.33;;
57395;SDS011;43222;52.912;6.940;2024-01-11T05:20:25;70.13;;;35.63;;
57395;SDS011;43222;52.912;6.940;2024-01-11T05:22:51;74.47;;;35.42;;
57395;SDS011;43222;52.912;6.940;2024-01-11T05:25:17;77.60;;;35.97;;
57395;SDS011;43222;52.912;6.940;2024-01-11T05:27:43;73.32;;;35.28;;
57395;SDS011;43222;52.912;6.940;2024-01-11T05:30:09;77.18;;;37.13;;
57395;SDS011;43222;52.912;6.940;2024-01-11T05:32:35;79.00;;;38.28;;
57395;SDS011;43222;52.912;6.940;2024-01-11T05:35:01;81.15;;;38.30;;
57395;SDS011;43222;52.912;6.940;2024-01-11T05:37:27;76.47;;;36.97;;
57395;SDS011;43222;52.912;6.940;2024-01-11T05:39:54;80.25;;;38.17;;
57395;SDS011;43222;52.912;6.940;2024-01-11T05:42:23;67.50;;;33.50;;
57395;SDS011;43222;52.912;6.940;2024-01-11T05:44:49;77.03;;;36.75;;
57395;SDS011;43222;52.912;6.940;2024-01-11T05:47:15;74.20;;;37.17;;
57395;SDS011;43222;52.912;6.940;2024-01-11T05:49:41;74.43;;;36.25;;
57395;SDS011;43222;52.912;6.940;2024-01-11T05:52:07;72.07;;;36.30;;
57395;SDS011;43222;52.912;6.940;2024-01-11T05:54:33;68.93;;;34.83;;
57395;SDS011;43222;52.912;6.940;2024-01-11T05:56:59;64.13;;;32.40;;
57395;SDS011;43222;52.912;6.940;2024-01-11T05:59:25;69.70;;;36.92;;
57395;SDS011;43222;52.912;6.940;2024-01-11T06:01:51;77.78;;;39.72;;
57395;SDS011;43222;52.912;6.940;2024-01-11T06:04:17;73.35;;;38.10;;
57395;SDS011;43222;52.912;6.940;2024-01-11T06:06:43;78.03;;;39.22;;
57395;SDS011;43222;52.912;6.940;2024-01-11T06:09:09;90.25;;;44.88;;
57395;SDS011;43222;52.912;6.940;2024-01-11T06:11:36;95.63;;;47.33;;
57395;SDS011;43222;52.912;6.940;2024-01-11T06:14:02;89.95;;;47.00;;
57395;SDS011;43222;52.912;6.940;2024-01-11T06:16:28;79.97;;;42.22;;
57395;SDS011;43222;52.912;6.940;2024-01-11T06:18:54;75.18;;;38.97;;
57395;SDS011;43222;52.912;6.940;2024-01-11T06:21:20;80.57;;;40.35;;
57395;SDS011;43222;52.912;6.940;2024-01-11T06:23:46;84.05;;;42.42;;
57395;SDS011;43222;52.912;6.940;2024-01-11T06:26:14;81.65;;;40.42;;
57395;SDS011;43222;52.912;6.940;2024-01-11T06:28:40;88.57;;;45.00;;
57395;SDS011;43222;52.912;6.940;2024-01-11T06:31:06;87.88;;;44.42;;
57395;SDS011;43222;52.912;6.940;2024-01-11T06:33:32;81.85;;;42.25;;
57395;SDS011;43222;52.912;6.940;2024-01-11T06:36:02;77.72;;;39.90;;
57395;SDS011;43222;52.912;6.940;2024-01-11T06:38:28;88.07;;;45.22;;
57395;SDS011;43222;52.912;6.940;2024-01-11T06:40:54;89.13;;;46.10;;
57395;SDS011;43222;52.912;6.940;2024-01-11T06:43:20;108.80;;;57.25;;
57395;SDS011;43222;52.912;6.940;2024-01-11T06:45:46;104.18;;;55.42;;
57395;SDS011;43222;52.912;6.940;2024-01-11T06:48:12;103.32;;;52.20;;
57395;SDS011;43222;52.912;6.940;2024-01-11T06:50:38;108.07;;;56.50;;
57395;SDS011;43222;52.912;6.940;2024-01-11T06:53:04;102.63;;;53.58;;
57395;SDS011;43222;52.912;6.940;2024-01-11T06:55:30;93.85;;;49.50;;
57395;SDS011;43222;52.912;6.940;2024-01-11T06:57:56;83.65;;;43.97;;
57395;SDS011;43222;52.912;6.940;2024-01-11T07:00:22;83.47;;;44.45;;
57395;SDS011;43222;52.912;6.940;2024-01-11T07:02:49;81.82;;;43.05;;
57395;SDS011;43222;52.912;6.940;2024-01-11T07:05:15;87.25;;;44.22;;
57395;SDS011;43222;52.912;6.940;2024-01-11T07:07:41;80.93;;;43.92;;
57395;SDS011;43222;52.912;6.940;2024-01-11T07:10:07;74.10;;;40.45;;
57395;SDS011;43222;52.912;6.940;2024-01-11T07:12:33;84.15;;;43.25;;
57395;SDS011;43222;52.912;6.940;2024-01-11T07:15:00;90.00;;;45.53;;
57395;SDS011;43222;52.912;6.940;2024-01-11T07:17:26;93.28;;;45.42;;
57395;SDS011;43222;52.912;6.940;2024-01-11T07:19:52;82.25;;;43.30;;
57395;SDS011;43222;52.912;6.940;2024-01-11T07:22:18;81.13;;;41.58;;
57395;SDS011;43222;52.912;6.940;2024-01-11T07:24:44;88.28;;;44.63;;
57395;SDS011;43222;52.912;6.940;2024-01-11T07:27:10;85.00;;;44.22;;
57395;SDS011;43222;52.912;6.940;2024-01-11T07:29:36;92.72;;;45.58;;
57395;SDS011;43222;52.912;6.940;2024-01-11T07:32:02;83.88;;;43.80;;
57395;SDS011;43222;52.912;6.940;2024-01-11T07:34:31;92.05;;;45.17;;
57395;SDS011;43222;52.912;6.940;2024-01-11T07:36:58;94.65;;;46.67;;
57395;SDS011;43222;52.912;6.940;2024-01-11T07:39:24;84.30;;;42.10;;
57395;SDS011;43222;52.912;6.940;2024-01-11T07:41:50;85.07;;;42.72;;
57395;SDS011;43222;52.912;6.940;2024-01-11T07:44:17;78.50;;;38.90;;
57395;SDS011;43222;52.912;6.940;2024-01-11T07:46:44;71.03;;;37.15;;
57395;SDS011;43222;52.912;6.940;2024-01-11T07:49:10;76.72;;;39.03;;
57395;SDS011;43222;52.912;6.940;2024-01-11T07:51:36;76.90;;;39.22;;
57395;SDS011;43222;52.912;6.940;2024-01-11T07:54:02;75.35;;;38.22;;
57395;SDS011;43222;52.912;6.940;2024-01-11T07:56:30;72.55;;;37.95;;
57395;SDS011;43222;52.912;6.940;2024-01-11T07:58:56;80.57;;;38.72;;
57395;SDS011;43222;52.912;6.940;2024-01-11T08:01:22;76.30;;;39.35;;
57395;SDS011;43222;52.912;6.940;2024-01-11T08:03:48;75.90;;;39.28;;
57395;SDS011;43222;52.912;6.940;2024-01-11T08:06:17;74.18;;;39.08;;
57395;SDS011;43222;52.912;6.940;2024-01-11T08:08:43;81.00;;;39.00;;
57395;SDS011;43222;52.912;6.940;2024-01-11T08:11:09;76.90;;;38.72;;
57395;SDS011;43222;52.912;6.940;2024-01-11T08:13:37;73.55;;;39.38;;
57395;SDS011;43222;52.912;6.940;2024-01-11T08:16:03;79.07;;;41.13;;
57395;SDS011;43222;52.912;6.940;2024-01-11T08:18:32;80.07;;;41.22;;
57395;SDS011;43222;52.912;6.940;2024-01-11T08:20:58;83.05;;;44.00;;
57395;SDS011;43222;52.912;6.940;2024-01-11T08:23:24;87.22;;;43.92;;
57395;SDS011;43222;52.912;6.940;2024-01-11T08:25:50;82.55;;;42.67;;
57395;SDS011;43222;52.912;6.940;2024-01-11T08:28:17;81.47;;;40.95;;
57395;SDS011;43222;52.912;6.940;2024-01-11T08:30:45;85.72;;;42.00;;
57395;SDS011;43222;52.912;6.940;2024-01-11T08:33:11;86.10;;;43.72;;
57395;SDS011;43222;52.912;6.940;2024-01-11T08:35:38;84.07;;;42.30;;
57395;SDS011;43222;52.912;6.940;2024-01-11T08:38:05;78.95;;;39.22;;
57395;SDS011;43222;52.912;6.940;2024-01-11T08:40:32;75.80;;;38.83;;
57395;SDS011;43222;52.912;6.940;2024-01-11T08:42:58;76.32;;;39.50;;
57395;SDS011;43222;52.912;6.940;2024-01-11T08:45:24;76.85;;;39.55;;
57395;SDS011;43222;52.912;6.940;2024-01-11T08:47:50;77.50;;;40.38;;
57395;SDS011;43222;52.912;6.940;2024-01-11T08:50:16;76.38;;;38.92;;
57395;SDS011;43222;52.912;6.940;2024-01-11T08:52:43;79.78;;;39.88;;
57395;SDS011;43222;52.912;6.940;2024-01-11T08:55:09;77.40;;;39.40;;
57395;SDS011;43222;52.912;6.940;2024-01-11T08:57:37;77.32;;;40.95;;
57395;SDS011;43222;52.912;6.940;2024-01-11T09:00:04;78.00;;;40.50;;
57395;SDS011;43222;52.912;6.940;2024-01-11T09:02:34;78.88;;;40.22;;
57395;SDS011;43222;52.912;6.940;2024-01-11T09:05:00;79.05;;;41.28;;
57395;SDS011;43222;52.912;6.940;2024-01-11T09:07:27;78.13;;;39.67;;
57395;SDS011;43222;52.912;6.940;2024-01-11T09:09:53;74.30;;;38.03;;
57395;SDS011;43222;52.912;6.940;2024-01-11T09:12:19;72.40;;;39.30;;
57395;SDS011;43222;52.912;6.940;2024-01-11T09:14:46;70.88;;;37.35;;
57395;SDS011;43222;52.912;6.940;2024-01-11T09:17:13;78.40;;;37.78;;
57395;SDS011;43222;52.912;6.940;2024-01-11T09:19:39;76.72;;;38.67;;
57395;SDS011;43222;52.912;6.940;2024-01-11T09:22:05;74.28;;;38.70;;
57395;SDS011;43222;52.912;6.940;2024-01-11T09:24:35;78.65;;;39.58;;
57395;SDS011;43222;52.912;6.940;2024-01-11T09:27:01;79.00;;;41.45;;
57395;SDS011;43222;52.912;6.940;2024-01-11T09:29:29;84.15;;;43.33;;
57395;SDS011;43222;52.912;6.940;2024-01-11T09:31:55;75.03;;;39.70;;
57395;SDS011;43222;52.912;6.940;2024-01-11T09:34:21;75.70;;;40.40;;
57395;SDS011;43222;52.912;6.940;2024-01-11T09:36:47;73.75;;;38.78;;
57395;SDS011;43222;52.912;6.940;2024-01-11T09:39:13;69.28;;;36.53;;
57395;SDS011;43222;52.912;6.940;2024-01-11T09:41:41;70.10;;;37.28;;
57395;SDS011;43222;52.912;6.940;2024-01-11T09:44:10;67.45;;;36.63;;
57395;SDS011;43222;52.912;6.940;2024-01-11T09:46:37;64.35;;;33.50;;
57395;SDS011;43222;52.912;6.940;2024-01-11T09:49:03;60.55;;;34.42;;
57395;SDS011;43222;52.912;6.940;2024-01-11T09:51:29;61.47;;;33.67;;
57395;SDS011;43222;52.912;6.940;2024-01-11T09:53:56;62.03;;;33.10;;
57395;SDS011;43222;52.912;6.940;2024-01-11T09:56:24;57.67;;;31.98;;
57395;SDS011;43222;52.912;6.940;2024-01-11T09:58:52;58.80;;;32.70;;
57395;SDS011;43222;52.912;6.940;2024-01-11T10:01:18;54.17;;;30.85;;
57395;SDS011;43222;52.912;6.940;2024-01-11T10:03:45;54.92;;;29.77;;
57395;SDS011;43222;52.912;6.940;2024-01-11T10:06:11;53.30;;;30.33;;
57395;SDS011;43222;52.912;6.940;2024-01-11T10:08:37;60.63;;;32.22;;
57395;SDS011;43222;52.912;6.940;2024-01-11T10:11:03;54.67;;;31.15;;
57395;SDS011;43222;52.912;6.940;2024-01-11T10:13:30;53.35;;;31.20;;
57395;SDS011;43222;52.912;6.940;2024-01-11T10:16:07;56.38;;;31.02;;
57395;SDS011;43222;52.912;6.940;2024-01-11T10:18:34;53.33;;;30.52;;
57395;SDS011;43222;52.912;6.940;2024-01-11T10:21:01;49.30;;;27.42;;
57395;SDS011;43222;52.912;6.940;2024-01-11T10:23:27;51.78;;;30.05;;
57395;SDS011;43222;52.912;6.940;2024-01-11T10:25:57;54.65;;;31.00;;
57395;SDS011;43222;52.912;6.940;2024-01-11T10:28:26;49.88;;;28.50;;
57395;SDS011;43222;52.912;6.940;2024-01-11T10:30:53;51.40;;;28.20;;
57395;SDS011;43222;52.912;6.940;2024-01-11T10:33:19;48.53;;;27.27;;
57395;SDS011;43222;52.912;6.940;2024-01-11T10:35:46;43.10;;;25.90;;
57395;SDS011;43222;52.912;6.940;2024-01-11T10:38:14;47.97;;;27.92;;
57395;SDS011;43222;52.912;6.940;2024-01-11T10:40:41;44.08;;;26.23;;
57395;SDS011;43222;52.912;6.940;2024-01-11T10:43:10;48.90;;;27.88;;
57395;SDS011;43222;52.912;6.940;2024-01-11T10:45:37;43.33;;;27.05;;
57395;SDS011;43222;52.912;6.940;2024-01-11T10:48:06;46.05;;;26.77;;
57395;SDS011;43222;52.912;6.940;2024-01-11T10:50:34;46.88;;;28.27;;
57395;SDS011;43222;52.912;6.940;2024-01-11T10:55:34;47.58;;;27.48;;
57395;SDS011;43222;52.912;6.940;2024-01-11T10:58:00;48.75;;;27.60;;
57395;SDS011;43222;52.912;6.940;2024-01-11T11:00:28;47.80;;;27.63;;
57395;SDS011;43222;52.912;6.940;2024-01-11T11:02:55;55.75;;;29.67;;
57395;SDS011;43222;52.912;6.940;2024-01-11T11:05:21;51.85;;;29.75;;
57395;SDS011;43222;52.912;6.940;2024-01-11T11:07:49;49.92;;;29.98;;
57395;SDS011;43222;52.912;6.940;2024-01-11T11:10:17;54.95;;;31.98;;
57395;SDS011;43222;52.912;6.940;2024-01-11T11:12:44;41.83;;;25.35;;
57395;SDS011;43222;52.912;6.940;2024-01-11T11:15:12;45.65;;;27.63;;
57395;SDS011;43222;52.912;6.940;2024-01-11T11:17:39;50.40;;;29.67;;
57395;SDS011;43222;52.912;6.940;2024-01-11T11:20:06;48.08;;;28.23;;
57395;SDS011;43222;52.912;6.940;2024-01-11T11:22:33;56.85;;;28.70;;
57395;SDS011;43222;52.912;6.940;2024-01-11T11:25:04;46.58;;;28.73;;
57395;SDS011;43222;52.912;6.940;2024-01-11T11:27:32;43.42;;;26.10;;
57395;SDS011;43222;52.912;6.940;2024-01-11T11:29:58;42.38;;;25.08;;
57395;SDS011;43222;52.912;6.940;2024-01-11T11:32:36;44.05;;;25.35;;
57395;SDS011;43222;52.912;6.940;2024-01-11T11:35:03;40.75;;;24.23;;
57395;SDS011;43222;52.912;6.940;2024-01-11T11:37:30;35.90;;;21.02;;
57395;SDS011;43222;52.912;6.940;2024-01-11T11:39:58;39.83;;;22.30;;
57395;SDS011;43222;52.912;6.940;2024-01-11T11:42:25;38.08;;;22.83;;
57395;SDS011;43222;52.912;6.940;2024-01-11T11:44:53;38.17;;;23.13;;
57395;SDS011;43222;52.912;6.940;2024-01-11T11:47:20;40.35;;;23.73;;
57395;SDS011;43222;52.912;6.940;2024-01-11T11:49:57;36.67;;;22.40;;
57395;SDS011;43222;52.912;6.940;2024-01-11T11:52:24;39.53;;;23.48;;
57395;SDS011;43222;52.912;6.940;2024-01-11T11:54:51;40.25;;;22.83;;
57395;SDS011;43222;52.912;6.940;2024-01-11T11:57:17;41.08;;;24.10;;
57395;SDS011;43222;52.912;6.940;2024-01-11T11:59:43;38.80;;;23.13;;
57395;SDS011;43222;52.912;6.940;2024-01-11T12:02:10;36.25;;;22.45;;
57395;SDS011;43222;52.912;6.940;2024-01-11T12:04:46;37.78;;;22.15;;
57395;SDS011;43222;52.912;6.940;2024-01-11T12:07:12;38.47;;;22.55;;
57395;SDS011;43222;52.912;6.940;2024-01-11T12:09:39;39.35;;;23.33;;
57395;SDS011;43222;52.912;6.940;2024-01-11T12:12:05;36.78;;;22.95;;
57395;SDS011;43222;52.912;6.940;2024-01-11T12:14:31;38.45;;;23.85;;
57395;SDS011;43222;52.912;6.940;2024-01-11T12:16:57;34.00;;;19.92;;
57395;SDS011;43222;52.912;6.940;2024-01-11T12:19:24;35.53;;;21.95;;
57395;SDS011;43222;52.912;6.940;2024-01-11T12:21:50;35.83;;;20.38;;
57395;SDS011;43222;52.912;6.940;2024-01-11T12:24:16;39.13;;;22.17;;
57395;SDS011;43222;52.912;6.940;2024-01-11T12:26:42;36.28;;;22.08;;
57395;SDS011;43222;52.912;6.940;2024-01-11T12:29:09;37.30;;;23.27;;
57395;SDS011;43222;52.912;6.940;2024-01-11T12:31:35;35.25;;;21.63;;
57395;SDS011;43222;52.912;6.940;2024-01-11T12:34:02;34.72;;;21.50;;
57395;SDS011;43222;52.912;6.940;2024-01-11T12:36:28;37.58;;;21.77;;
57395;SDS011;43222;52.912;6.940;2024-01-11T12:38:55;37.60;;;22.85;;
57395;SDS011;43222;52.912;6.940;2024-01-11T12:41:21;38.45;;;23.35;;
57395;SDS011;43222;52.912;6.940;2024-01-11T12:43:48;40.03;;;22.65;;
57395;SDS011;43222;52.912;6.940;2024-01-11T12:46:14;34.88;;;22.13;;
57395;SDS011;43222;52.912;6.940;2024-01-11T12:48:41;37.13;;;22.67;;
57395;SDS011;43222;52.912;6.940;2024-01-11T12:51:07;37.17;;;21.90;;
57395;SDS011;43222;52.912;6.940;2024-01-11T12:53:33;38.47;;;22.65;;
57395;SDS011;43222;52.912;6.940;2024-01-11T12:56:02;43.10;;;24.90;;
57395;SDS011;43222;52.912;6.940;2024-01-11T12:58:29;40.45;;;23.90;;
57395;SDS011;43222;52.912;6.940;2024-01-11T13:00:55;46.35;;;23.42;;
57395;SDS011;43222;52.912;6.940;2024-01-11T13:03:22;38.55;;;21.58;;
57395;SDS011;43222;52.912;6.940;2024-01-11T13:05:48;46.97;;;23.88;;
57395;SDS011;43222;52.912;6.940;2024-01-11T13:08:14;42.25;;;22.92;;
57395;SDS011;43222;52.912;6.940;2024-01-11T13:10:40;39.65;;;22.48;;
57395;SDS011;43222;52.912;6.940;2024-01-11T13:13:06;45.20;;;23.85;;
57395;SDS011;43222;52.912;6.940;2024-01-11T13:15:33;45.78;;;24.70;;
57395;SDS011;43222;52.912;6.940;2024-01-11T13:17:59;52.95;;;26.88;;
57395;SDS011;43222;52.912;6.940;2024-01-11T13:20:27;49.72;;;25.75;;
57395;SDS011;43222;52.912;6.940;2024-01-11T13:23:10;50.80;;;25.05;;
57395;SDS011;43222;52.912;6.940;2024-01-11T13:25:38;49.65;;;26.15;;
57395;SDS011;43222;52.912;6.940;2024-01-11T13:28:04;45.65;;;24.60;;
57395;SDS011;43222;52.912;6.940;2024-01-11T13:30:31;54.10;;;27.10;;
57395;SDS011;43222;52.912;6.940;2024-01-11T13:32:58;47.90;;;26.02;;
57395;SDS011;43222;52.912;6.940;2024-01-11T13:35:24;54.00;;;29.33;;
57395;SDS011;43222;52.912;6.940;2024-01-11T13:37:50;54.97;;;29.33;;
57395;SDS011;43222;52.912;6.940;2024-01-11T13:40:16;53.65;;;27.20;;
57395;SDS011;43222;52.912;6.940;2024-01-11T13:42:42;54.80;;;28.23;;
57395;SDS011;43222;52.912;6.940;2024-01-11T13:45:08;52.72;;;28.77;;
57395;SDS011;43222;52.912;6.940;2024-01-11T13:47:38;58.83;;;30.60;;
57395;SDS011;43222;52.912;6.940;2024-01-11T13:50:04;67.03;;;33.00;;
57395;SDS011;43222;52.912;6.940;2024-01-11T13:52:30;60.38;;;31.10;;
57395;SDS011;43222;52.912;6.940;2024-01-11T13:54:56;64.93;;;31.10;;
57395;SDS011;43222;52.912;6.940;2024-01-11T13:57:22;63.15;;;30.40;;
57395;SDS011;43222;52.912;6.940;2024-01-11T13:59:49;59.33;;;31.05;;
57395;SDS011;43222;52.912;6.940;2024-01-11T14:02:15;66.90;;;30.85;;
57395;SDS011;43222;52.912;6.940;2024-01-11T14:04:41;60.25;;;30.35;;
57395;SDS011;43222;52.912;6.940;2024-01-11T14:07:07;54.75;;;28.00;;
57395;SDS011;43222;52.912;6.940;2024-01-11T14:09:33;64.95;;;31.90;;
57395;SDS011;43222;52.912;6.940;2024-01-11T14:11:59;62.70;;;29.48;;
57395;SDS011;43222;52.912;6.940;2024-01-11T14:14:26;59.53;;;29.60;;
57395;SDS011;43222;52.912;6.940;2024-01-11T14:16:52;68.40;;;30.67;;
57395;SDS011;43222;52.912;6.940;2024-01-11T14:19:18;61.10;;;30.77;;